Time;durP1;ratioP1;P1;durP2;ratioP2;P2;SDS_P1;SDS_P2;PMS_P1;PMS_P2;Temp;Humidity;BMP_temperature;BMP_pressure;BME280_temperature;BME280_humidity;BME280_pressure;Samples;Min_cycle;Max_cycle;Signal;HPM_P1;HPM_P2
2024/01/26 00:00:08;;;;;;;0.50;0.50;;;5.10;99.90;;;;;;4967545;28;20248;-83
2024/01/26 00:02:35;;;;;;;2.60;2.15;;;5.10;99.90;;;;;;4974011;28;20449;-81
2024/01/26 00:05:05;;;;;;;0.60;0.60;;;5.10;99.90;;;;;;4960975;28;20205;-83
2024/01/26 00:07:35;;;;;;;0.60;0.60;;;5.10;99.90;;;;;;4987535;28;20208;-80
2024/01/26 00:10:03;;;;;;;2.35;2.15;;;5.10;99.90;;;;;;4973470;28;20195;-82
2024/01/26 00:12:35;;;;;;;0.50;0.50;;;5.00;99.90;;;;;;4961703;28;20220;-82
2024/01/26 00:15:03;;;;;;;0.73;0.73;;;5.00;99.90;;;;;;4987158;28;20200;-84
2024/01/26 00:17:30;;;;;;;3.97;3.63;;;5.00;99.90;;;;;;4983328;28;20519;-80
2024/01/26 00:20:00;;;;;;;0.80;0.80;;;5.10;99.90;;;;;;4961570;28;20199;-82
2024/01/26 00:22:27;;;;;;;0.88;0.88;;;5.00;99.90;;;;;;4954984;28;20226;-82
2024/01/26 00:24:55;;;;;;;0.60;0.60;;;5.00;99.90;;;;;;4988757;28;20204;-82
2024/01/26 00:27:23;;;;;;;0.50;0.50;;;5.10;99.90;;;;;;4954991;28;20210;-80
2024/01/26 00:29:52;;;;;;;1.45;1.35;;;4.90;99.90;;;;;;4978119;28;20222;-80
2024/01/26 00:32:19;;;;;;;0.60;0.60;;;4.90;99.90;;;;;;4979352;28;20269;-79
2024/01/26 00:34:48;;;;;;;0.50;0.50;;;4.90;99.90;;;;;;4965453;28;20208;-82
2024/01/26 00:37:16;;;;;;;0.50;0.50;;;4.90;99.90;;;;;;4976732;28;20203;-83
2024/01/26 00:39:46;;;;;;;0.60;0.60;;;4.90;99.90;;;;;;4978340;28;20418;-80
2024/01/26 00:42:18;;;;;;;0.82;0.82;;;5.10;99.90;;;;;;4968954;28;20215;-82
2024/01/26 00:44:45;;;;;;;2.67;2.58;;;4.90;99.90;;;;;;4980994;28;20518;-82
2024/01/26 00:47:15;;;;;;;0.80;0.80;;;4.80;99.90;;;;;;4977328;28;20427;-85
2024/01/26 00:49:45;;;;;;;0.50;0.50;;;4.80;99.90;;;;;;4966330;28;20242;-81
2024/01/26 00:52:22;;;;;;;0.50;0.50;;;4.60;99.90;;;;;;4965288;28;20206;-80
2024/01/26 00:54:49;;;;;;;0.50;0.50;;;4.70;99.90;;;;;;4959518;28;20203;-80
2024/01/26 00:57:17;;;;;;;1.02;1.02;;;4.50;99.90;;;;;;4966698;28;20224;-81
2024/01/26 00:59:44;;;;;;;1.02;1.02;;;4.40;99.90;;;;;;4975806;28;20399;-81
2024/01/26 01:02:12;;;;;;;0.60;0.60;;;4.50;99.90;;;;;;4954130;28;20247;-82
2024/01/26 01:04:40;;;;;;;1.05;1.05;;;4.40;99.90;;;;;;4963134;28;20266;-83
2024/01/26 01:07:13;;;;;;;2.25;1.88;;;4.40;99.90;;;;;;4966990;28;20207;-82
2024/01/26 01:09:41;;;;;;;0.60;0.60;;;4.30;99.90;;;;;;4958764;28;20207;-83
2024/01/26 01:12:08;;;;;;;0.80;0.80;;;4.30;99.90;;;;;;4987507;28;20215;-84
2024/01/26 01:14:36;;;;;;;0.47;0.47;;;4.30;99.90;;;;;;4978615;28;20266;-81
2024/01/26 01:17:04;;;;;;;0.75;0.75;;;4.30;99.90;;;;;;4986608;28;20200;-82
2024/01/26 01:19:31;;;;;;;2.25;2.15;;;4.30;99.90;;;;;;4977463;28;20515;-81
2024/01/26 01:21:58;;;;;;;0.40;0.40;;;4.40;99.90;;;;;;4980043;28;20299;-78
2024/01/26 01:24:25;;;;;;;1.27;1.25;;;4.40;99.90;;;;;;4986454;28;20534;-79
2024/01/26 01:26:54;;;;;;;1.95;1.35;;;4.30;99.90;;;;;;4988889;28;20487;-78
2024/01/26 01:29:21;;;;;;;0.40;0.40;;;4.30;99.90;;;;;;5006744;28;20198;-84
2024/01/26 01:31:48;;;;;;;0.57;0.57;;;4.30;99.90;;;;;;4990371;28;20203;-80
2024/01/26 01:34:15;;;;;;;0.50;0.50;;;4.30;99.90;;;;;;4990761;28;20550;-79
2024/01/26 01:36:42;;;;;;;1.25;1.25;;;4.30;99.90;;;;;;4958389;28;20205;-79
2024/01/26 01:39:09;;;;;;;4.72;3.58;;;4.30;99.90;;;;;;4961219;28;20407;-80
2024/01/26 01:41:36;;;;;;;0.60;0.60;;;4.30;99.90;;;;;;4955682;28;20227;-80
2024/01/26 01:44:03;;;;;;;1.15;1.08;;;4.30;99.90;;;;;;4972959;28;20668;-79
2024/01/26 01:46:31;;;;;;;0.40;0.40;;;4.30;99.90;;;;;;4973665;28;20240;-80
2024/01/26 01:48:58;;;;;;;1.58;1.48;;;4.30;99.90;;;;;;4980264;28;20229;-79
2024/01/26 01:51:28;;;;;;;0.80;0.80;;;4.40;99.90;;;;;;4964361;28;20207;-80
2024/01/26 01:53:58;;;;;;;0.63;0.63;;;4.30;99.90;;;;;;4966395;28;20207;-78
2024/01/26 01:56:26;;;;;;;0.93;0.93;;;4.30;99.90;;;;;;4980649;28;20230;-80
2024/01/26 01:58:55;;;;;;;0.50;0.50;;;4.30;99.90;;;;;;4967003;28;20515;-82
2024/01/26 02:01:21;;;;;;;0.50;0.50;;;4.30;99.90;;;;;;4987523;28;20225;-82
2024/01/26 02:03:49;;;;;;;0.40;0.40;;;4.30;99.90;;;;;;4958189;28;20204;-81
2024/01/26 02:06:16;;;;;;;0.50;0.50;;;4.30;99.90;;;;;;4980912;28;20239;-81
2024/01/26 02:08:43;;;;;;;0.70;0.70;;;4.30;99.90;;;;;;4968139;28;20203;-80
2024/01/26 02:11:10;;;;;;;1.58;1.48;;;4.30;99.90;;;;;;4956557;28;20294;-81
2024/01/26 02:13:37;;;;;;;1.05;1.05;;;4.30;99.90;;;;;;4968899;28;20203;-80
2024/01/26 02:16:04;;;;;;;0.40;0.40;;;4.30;99.90;;;;;;4973275;28;20226;-82
2024/01/26 02:18:33;;;;;;;1.20;1.15;;;4.30;99.90;;;;;;4951206;28;20389;-82
2024/01/26 02:21:00;;;;;;;1.38;1.13;;;4.30;99.90;;;;;;4980583;28;20209;-80
2024/01/26 02:23:27;;;;;;;0.43;0.43;;;4.30;99.90;;;;;;4976571;28;20238;-80
2024/01/26 02:25:54;;;;;;;1.52;1.42;;;4.30;99.90;;;;;;4978524;28;20203;-82
2024/01/26 02:28:23;;;;;;;1.63;1.52;;;4.20;99.90;;;;;;4980365;28;20234;-81
2024/01/26 02:30:50;;;;;;;0.50;0.50;;;4.30;99.90;;;;;;4976341;28;20273;-80
2024/01/26 02:33:17;;;;;;;0.65;0.65;;;4.30;99.90;;;;;;4975395;28;20240;-83
2024/01/26 02:35:44;;;;;;;0.50;0.50;;;4.30;99.90;;;;;;4982893;28;20245;-82
2024/01/26 02:38:11;;;;;;;0.70;0.70;;;4.20;99.90;;;;;;4979550;28;20365;-81
2024/01/26 02:40:38;;;;;;;0.65;0.65;;;4.20;99.90;;;;;;4972317;28;20199;-81
2024/01/26 02:43:06;;;;;;;0.80;0.80;;;4.10;99.90;;;;;;4987681;28;20265;-81
2024/01/26 02:45:33;;;;;;;1.15;1.15;;;4.10;99.90;;;;;;4988969;28;20192;-81
2024/01/26 02:47:59;;;;;;;0.40;0.40;;;4.10;99.90;;;;;;4991214;28;20206;-80
2024/01/26 02:50:26;;;;;;;1.95;1.85;;;4.10;99.90;;;;;;4984256;28;20262;-81
2024/01/26 02:52:54;;;;;;;0.75;0.75;;;4.10;99.90;;;;;;4986461;28;20496;-81
2024/01/26 02:55:20;;;;;;;0.50;0.50;;;4.20;99.90;;;;;;4969813;28;20253;-81
2024/01/26 02:57:47;;;;;;;0.88;0.88;;;4.20;99.90;;;;;;4957214;28;20490;-83
2024/01/26 03:00:15;;;;;;;3.03;2.83;;;4.10;99.90;;;;;;4981229;28;20450;-80
2024/01/26 03:02:42;;;;;;;1.58;1.48;;;4.10;99.90;;;;;;4975806;28;20223;-81
2024/01/26 03:05:09;;;;;;;0.85;0.85;;;4.10;99.90;;;;;;4981682;28;20246;-80
2024/01/26 03:07:36;;;;;;;3.13;1.48;;;4.10;99.90;;;;;;4964068;28;20269;-81
2024/01/26 03:10:03;;;;;;;1.70;1.60;;;4.10;99.90;;;;;;4970807;28;20233;-80
2024/01/26 03:12:30;;;;;;;0.40;0.40;;;4.10;99.90;;;;;;4968917;28;20215;-80
2024/01/26 03:14:57;;;;;;;1.25;1.15;;;4.20;99.90;;;;;;4979653;28;20219;-80
2024/01/26 03:17:24;;;;;;;0.50;0.50;;;4.20;99.90;;;;;;4948532;28;20204;-80
2024/01/26 03:19:51;;;;;;;0.50;0.50;;;4.20;99.90;;;;;;4977402;28;20293;-82
2024/01/26 03:22:18;;;;;;;1.88;1.77;;;4.20;99.90;;;;;;4960294;28;20229;-80
2024/01/26 03:24:45;;;;;;;1.50;1.40;;;4.20;99.90;;;;;;4964370;28;20554;-80
2024/01/26 03:27:12;;;;;;;0.50;0.50;;;4.10;99.90;;;;;;4955252;28;20268;-80
2024/01/26 03:29:39;;;;;;;0.70;0.70;;;4.20;99.90;;;;;;4978976;28;20207;-80
2024/01/26 03:32:06;;;;;;;0.98;0.98;;;4.10;99.90;;;;;;4970917;28;20273;-81
2024/01/26 03:34:34;;;;;;;2.53;2.33;;;4.10;99.90;;;;;;4985843;28;20273;-82
2024/01/26 03:37:01;;;;;;;1.98;1.80;;;4.10;99.90;;;;;;4978833;28;20207;-80
2024/01/26 03:39:28;;;;;;;0.50;0.50;;;4.10;99.90;;;;;;4947517;28;20207;-80
2024/01/26 03:41:55;;;;;;;0.40;0.40;;;4.10;99.90;;;;;;4970232;28;20228;-79
2024/01/26 03:44:22;;;;;;;1.20;1.10;;;4.10;99.90;;;;;;4967231;28;20258;-79
2024/01/26 03:46:50;;;;;;;3.33;1.50;;;4.10;99.90;;;;;;4978146;28;20249;-81
2024/01/26 03:49:17;;;;;;;2.55;2.45;;;4.10;99.90;;;;;;4970234;28;20278;-81
2024/01/26 03:51:44;;;;;;;1.50;1.40;;;4.10;99.90;;;;;;4982803;28;20217;-82
2024/01/26 03:54:11;;;;;;;0.40;0.40;;;4.00;99.90;;;;;;4977573;28;20198;-81
2024/01/26 03:56:38;;;;;;;7.68;4.45;;;4.10;99.90;;;;;;4977006;28;20276;-82
2024/01/26 03:59:05;;;;;;;0.40;0.40;;;4.10;99.90;;;;;;4975982;28;20198;-80
2024/01/26 04:01:32;;;;;;;0.82;0.82;;;4.10;99.90;;;;;;4982915;28;20250;-80
2024/01/26 04:04:00;;;;;;;0.40;0.40;;;4.00;99.90;;;;;;4984071;28;20207;-79
2024/01/26 04:06:33;;;;;;;2.60;2.50;;;4.00;99.90;;;;;;4977123;28;20274;-81
2024/01/26 04:08:59;;;;;;;0.88;0.88;;;4.00;99.90;;;;;;4950510;28;20211;-82
2024/01/26 04:11:27;;;;;;;1.67;1.30;;;4.00;99.90;;;;;;4968644;28;20275;-82
2024/01/26 04:13:53;;;;;;;3.63;1.55;;;4.00;99.90;;;;;;4969795;28;20386;-80
2024/01/26 04:16:20;;;;;;;0.65;0.65;;;4.10;99.90;;;;;;4964839;28;20204;-83
2024/01/26 04:18:47;;;;;;;1.25;1.25;;;4.10;99.90;;;;;;4969498;28;21048;-81
2024/01/26 04:21:14;;;;;;;0.50;0.50;;;4.20;99.90;;;;;;4953029;28;20491;-81
2024/01/26 04:23:44;;;;;;;1.02;0.93;;;4.20;99.90;;;;;;4969048;28;20203;-80
2024/01/26 04:26:11;;;;;;;1.80;1.17;;;4.20;99.90;;;;;;4981818;28;20210;-82
2024/01/26 04:28:38;;;;;;;0.50;0.50;;;4.20;99.90;;;;;;4966826;28;20500;-80
2024/01/26 04:31:05;;;;;;;0.40;0.40;;;4.20;99.90;;;;;;4966462;28;20606;-82
2024/01/26 04:33:32;;;;;;;0.60;0.60;;;4.10;99.90;;;;;;4966003;28;20238;-82
2024/01/26 04:35:59;;;;;;;0.40;0.40;;;4.10;99.90;;;;;;4967744;28;20200;-81
2024/01/26 04:38:26;;;;;;;0.70;0.70;;;4.10;99.90;;;;;;4950979;28;20210;-82
2024/01/26 04:40:53;;;;;;;0.80;0.80;;;4.00;99.90;;;;;;4967240;28;20528;-82
2024/01/26 04:43:20;;;;;;;0.88;0.88;;;4.10;99.90;;;;;;4970039;28;20291;-81
2024/01/26 04:45:47;;;;;;;3.25;2.15;;;4.10;99.90;;;;;;4974412;28;20235;-81
2024/01/26 04:48:14;;;;;;;1.52;1.42;;;4.10;99.90;;;;;;4951926;28;20200;-82
2024/01/26 04:50:41;;;;;;;0.50;0.50;;;4.20;99.90;;;;;;4969183;28;20212;-81
2024/01/26 04:53:08;;;;;;;0.60;0.60;;;4.10;99.90;;;;;;4982282;28;20217;-80
2024/01/26 04:55:35;;;;;;;1.00;0.93;;;4.20;99.90;;;;;;4975251;28;20199;-81
2024/01/26 04:58:02;;;;;;;0.50;0.50;;;4.10;99.90;;;;;;4977426;28;20199;-82
2024/01/26 05:00:30;;;;;;;1.40;0.70;;;4.10;99.90;;;;;;4955219;28;20211;-81
2024/01/26 05:02:56;;;;;;;0.50;0.50;;;4.10;99.90;;;;;;4968447;28;20250;-81
2024/01/26 05:05:24;;;;;;;1.13;1.13;;;3.90;99.90;;;;;;4978572;28;20218;-82
2024/01/26 05:07:50;;;;;;;1.15;1.15;;;3.80;99.90;;;;;;4981991;28;20264;-81
2024/01/26 05:10:17;;;;;;;1.20;1.17;;;3.70;99.90;;;;;;4974491;28;20265;-84
2024/01/26 05:12:45;;;;;;;0.65;0.65;;;3.60;99.90;;;;;;4977747;28;20221;-81
2024/01/26 05:15:12;;;;;;;0.50;0.50;;;3.50;99.90;;;;;;4970267;28;20206;-81
2024/01/26 05:17:39;;;;;;;4.53;0.95;;;3.50;99.90;;;;;;4974597;28;20211;-81
2024/01/26 05:20:07;;;;;;;6.07;1.20;;;3.20;99.90;;;;;;4951361;28;20207;-80
2024/01/26 05:22:34;;;;;;;0.75;0.75;;;3.30;99.90;;;;;;4972510;28;20231;-81
2024/01/26 05:25:01;;;;;;;0.70;0.70;;;3.30;99.90;;;;;;4975753;28;20248;-81
2024/01/26 05:27:28;;;;;;;2.05;1.95;;;3.20;99.90;;;;;;4975067;28;20238;-81
2024/01/26 05:29:55;;;;;;;1.77;1.67;;;3.20;99.90;;;;;;4980054;28;20210;-81
2024/01/26 05:32:22;;;;;;;1.38;1.33;;;3.30;99.90;;;;;;4971214;28;20262;-81
2024/01/26 05:34:49;;;;;;;0.60;0.60;;;3.30;99.90;;;;;;4975394;28;20312;-82
2024/01/26 05:37:16;;;;;;;2.35;1.73;;;3.30;99.90;;;;;;4980307;28;20286;-81
2024/01/26 05:39:43;;;;;;;0.63;0.63;;;3.40;99.90;;;;;;4975935;28;20239;-79
2024/01/26 05:42:10;;;;;;;1.17;1.08;;;3.40;99.90;;;;;;4971630;28;20258;-81
2024/01/26 05:44:37;;;;;;;0.82;0.82;;;3.40;99.90;;;;;;4971718;28;20207;-82
2024/01/26 05:47:04;;;;;;;0.70;0.70;;;3.30;99.90;;;;;;4968711;28;20219;-81
2024/01/26 05:49:31;;;;;;;0.90;0.90;;;3.40;99.90;;;;;;4974172;28;20217;-80
2024/01/26 05:51:58;;;;;;;1.60;1.50;;;3.40;99.90;;;;;;4964967;28;20207;-82
2024/01/26 05:54:25;;;;;;;1.17;1.17;;;3.40;99.90;;;;;;4969051;28;20274;-82
2024/01/26 05:56:52;;;;;;;1.63;1.25;;;3.30;99.90;;;;;;4977470;28;20231;-82
2024/01/26 05:59:18;;;;;;;0.65;0.65;;;3.20;99.90;;;;;;4969612;28;20211;-80
2024/01/26 06:01:46;;;;;;;0.80;0.80;;;3.20;99.90;;;;;;4983116;28;20211;-81
2024/01/26 06:04:13;;;;;;;0.50;0.50;;;2.90;99.90;;;;;;4987221;28;20266;-82
2024/01/26 06:06:40;;;;;;;0.88;0.88;;;2.70;99.90;;;;;;4949870;28;20211;-80
2024/01/26 06:09:07;;;;;;;1.20;1.20;;;2.60;99.90;;;;;;4973139;28;20238;-80
2024/01/26 06:11:34;;;;;;;12.07;1.95;;;2.60;99.90;;;;;;4969481;28;20291;-81
2024/01/26 06:14:01;;;;;;;1.23;1.23;;;2.40;99.90;;;;;;4955783;28;20274;-82
2024/01/26 06:16:28;;;;;;;0.60;0.60;;;2.30;99.90;;;;;;4971877;28;20239;-81
2024/01/26 06:18:55;;;;;;;0.45;0.45;;;2.10;99.90;;;;;;4978051;28;20217;-80
2024/01/26 06:21:22;;;;;;;0.52;0.52;;;2.00;99.90;;;;;;4947199;28;20556;-83
2024/01/26 06:23:49;;;;;;;0.40;0.40;;;1.80;99.90;;;;;;4972172;28;20238;-81
2024/01/26 06:26:16;;;;;;;0.77;0.77;;;1.80;99.90;;;;;;4973978;28;20775;-82
2024/01/26 06:28:43;;;;;;;2.67;2.47;;;1.70;99.90;;;;;;4979602;28;20211;-81
2024/01/26 06:31:10;;;;;;;20.85;2.40;;;1.70;99.90;;;;;;4962864;28;20218;-81
2024/01/26 06:33:37;;;;;;;0.80;0.80;;;1.70;99.90;;;;;;4978023;28;20274;-81
2024/01/26 06:36:04;;;;;;;45.45;3.58;;;1.70;99.90;;;;;;4960460;28;20200;-80
2024/01/26 06:38:31;;;;;;;0.40;0.40;;;1.80;99.90;;;;;;4974490;28;20282;-83
2024/01/26 06:40:59;;;;;;;1.55;1.48;;;1.80;99.90;;;;;;4975554;28;20233;-82
2024/01/26 06:43:26;;;;;;;1.13;1.13;;;1.80;99.90;;;;;;4962989;28;20231;-82
2024/01/26 06:45:53;;;;;;;0.65;0.65;;;1.50;99.90;;;;;;4981161;28;20510;-81
2024/01/26 06:48:20;;;;;;;0.50;0.50;;;1.50;99.90;;;;;;4972628;28;20274;-84
2024/01/26 06:50:47;;;;;;;0.75;0.75;;;1.40;99.90;;;;;;4970233;28;20206;-84
2024/01/26 06:53:14;;;;;;;0.70;0.70;;;1.40;99.90;;;;;;4970720;28;20207;-80
2024/01/26 06:55:41;;;;;;;0.80;0.80;;;1.40;99.90;;;;;;4981824;28;20210;-81
2024/01/26 06:58:08;;;;;;;1.35;1.25;;;1.50;99.90;;;;;;4962965;28;20286;-81
2024/01/26 07:00:35;;;;;;;1.10;1.10;;;1.50;99.90;;;;;;4959850;28;20205;-83
2024/01/26 07:03:09;;;;;;;0.85;0.85;;;1.40;99.90;;;;;;4974354;28;20522;-83
2024/01/26 07:05:36;;;;;;;1.30;0.90;;;1.40;99.90;;;;;;4960746;28;20207;-81
2024/01/26 07:08:04;;;;;;;1.13;1.13;;;1.30;99.90;;;;;;4987271;28;20216;-80
2024/01/26 07:10:31;;;;;;;0.50;0.50;;;1.50;99.90;;;;;;4967540;28;20210;-82
2024/01/26 07:12:58;;;;;;;1.00;1.00;;;1.40;99.90;;;;;;4976631;28;20277;-80
2024/01/26 07:15:25;;;;;;;1.95;1.15;;;1.40;99.90;;;;;;4986354;28;20219;-84
2024/01/26 07:17:52;;;;;;;22.85;1.30;;;1.50;99.90;;;;;;4980263;28;20331;-80
2024/01/26 07:20:20;;;;;;;0.70;0.70;;;1.50;99.90;;;;;;4977176;28;20238;-82
2024/01/26 07:22:47;;;;;;;3.28;3.00;;;1.50;99.90;;;;;;4972842;28;20467;-82
2024/01/26 07:25:19;;;;;;;1.95;1.85;;;1.60;99.90;;;;;;4971998;28;20278;-80
2024/01/26 07:27:48;;;;;;;1.23;1.23;;;1.70;99.90;;;;;;4973338;28;20224;-87
2024/01/26 07:30:17;;;;;;;2.22;2.00;;;1.80;99.90;;;;;;4966641;28;20211;-80
2024/01/26 07:32:47;;;;;;;1.80;1.70;;;1.90;99.90;;;;;;5009677;28;20195;-81
2024/01/26 07:35:14;;;;;;;1.00;1.00;;;1.90;99.90;;;;;;4964808;28;20231;-81
2024/01/26 07:37:42;;;;;;;1.65;1.40;;;2.00;99.90;;;;;;4966050;28;20207;-81
2024/01/26 07:40:10;;;;;;;2.78;2.67;;;2.00;99.90;;;;;;4977719;28;20231;-78
2024/01/26 07:42:37;;;;;;;2.42;2.30;;;2.10;99.90;;;;;;4988420;28;20245;-82
2024/01/26 07:45:04;;;;;;;2.80;1.63;;;2.30;99.90;;;;;;4969818;28;20282;-80
2024/01/26 07:47:31;;;;;;;1.15;0.93;;;2.40;99.90;;;;;;4969919;28;20239;-83
2024/01/26 07:49:58;;;;;;;0.80;0.80;;;2.80;99.90;;;;;;4972986;28;20206;-82
2024/01/26 07:52:25;;;;;;;0.77;0.77;;;4.80;99.90;;;;;;4975733;28;20215;-81
2024/01/26 07:54:53;;;;;;;0.50;0.50;;;6.90;99.90;;;;;;4977812;28;20206;-81
2024/01/26 07:57:20;;;;;;;0.40;0.40;;;8.20;99.90;;;;;;4969553;28;20250;-82
2024/01/26 07:59:48;;;;;;;0.95;0.95;;;8.40;99.90;;;;;;4982563;28;20241;-81
2024/01/26 08:02:16;;;;;;;0.85;0.85;;;8.70;99.90;;;;;;4961422;28;20273;-80
2024/01/26 08:04:43;;;;;;;0.82;0.82;;;9.00;99.90;;;;;;4975599;28;20207;-81
2024/01/26 08:07:10;;;;;;;1.40;1.40;;;8.50;99.90;;;;;;4977733;28;20229;-80
2024/01/26 08:09:37;;;;;;;0.60;0.60;;;7.90;99.90;;;;;;4980667;28;20234;-82
2024/01/26 08:12:05;;;;;;;2.20;2.10;;;6.30;99.90;;;;;;4974016;28;20272;-79
2024/01/26 08:14:32;;;;;;;0.60;0.60;;;5.20;99.90;;;;;;4972984;28;20499;-81
2024/01/26 08:16:59;;;;;;;0.60;0.60;;;4.60;99.90;;;;;;4966381;28;20218;-82
2024/01/26 08:19:26;;;;;;;2.00;1.90;;;4.30;99.90;;;;;;4977201;28;20644;-80
2024/01/26 08:21:56;;;;;;;0.80;0.80;;;4.30;99.90;;;;;;4990692;28;20235;-82
2024/01/26 08:24:24;;;;;;;1.17;1.13;;;4.30;99.90;;;;;;4970145;28;20231;-81
2024/01/26 08:26:51;;;;;;;1.23;1.23;;;4.30;99.90;;;;;;4978569;28;20249;-81
2024/01/26 08:29:21;;;;;;;1.55;1.45;;;4.40;99.90;;;;;;4974658;28;20215;-81
2024/01/26 08:31:48;;;;;;;0.90;0.90;;;4.30;99.90;;;;;;4981435;28;20214;-83
2024/01/26 08:34:15;;;;;;;0.75;0.75;;;4.30;99.90;;;;;;4976147;28;20273;-79
2024/01/26 08:36:43;;;;;;;0.60;0.60;;;4.40;99.90;;;;;;4983171;28;20210;-79
2024/01/26 08:39:12;;;;;;;0.50;0.50;;;4.60;99.90;;;;;;4980688;28;20294;-79
2024/01/26 08:41:40;;;;;;;0.80;0.80;;;4.70;99.90;;;;;;4988790;28;20217;-81
2024/01/26 08:44:07;;;;;;;0.80;0.80;;;4.80;99.90;;;;;;4976926;28;20649;-80
2024/01/26 08:46:35;;;;;;;0.73;0.73;;;4.90;99.90;;;;;;4972378;28;20421;-79
2024/01/26 08:49:02;;;;;;;0.75;0.75;;;5.00;99.90;;;;;;4982564;28;20269;-79
2024/01/26 08:51:30;;;;;;;0.50;0.50;;;4.90;99.90;;;;;;4976472;28;20453;-81
2024/01/26 08:53:56;;;;;;;0.60;0.60;;;4.90;99.90;;;;;;4981714;28;20232;-79
2024/01/26 08:56:24;;;;;;;0.50;0.50;;;5.10;99.90;;;;;;4964761;28;20260;-81
2024/01/26 08:58:51;;;;;;;0.50;0.50;;;5.30;99.90;;;;;;4981847;28;20577;-80
2024/01/26 09:01:23;;;;;;;0.93;0.93;;;6.20;99.90;;;;;;4969551;28;20304;-80
2024/01/26 09:03:50;;;;;;;0.80;0.80;;;7.40;99.90;;;;;;4960481;28;20317;-82
2024/01/26 09:06:17;;;;;;;0.90;0.90;;;8.30;99.90;;;;;;4972176;28;20274;-79
2024/01/26 09:08:45;;;;;;;0.50;0.50;;;8.80;99.90;;;;;;4966397;28;20238;-78
2024/01/26 09:11:12;;;;;;;1.13;1.13;;;9.00;99.90;;;;;;4973097;28;20387;-79
2024/01/26 09:13:38;;;;;;;1.73;1.63;;;8.50;99.90;;;;;;4968756;28;20210;-80
2024/01/26 09:16:10;;;;;;;2.42;2.25;;;7.60;99.90;;;;;;4971740;28;20391;-80
2024/01/26 09:18:37;;;;;;;1.50;0.70;;;7.00;99.90;;;;;;4982658;28;20213;-82
2024/01/26 09:21:10;;;;;;;2.70;1.95;;;6.60;99.90;;;;;;4980422;28;20202;-79
2024/01/26 09:23:38;;;;;;;1.67;1.63;;;6.60;99.90;;;;;;4959224;28;20237;-79
2024/01/26 09:26:05;;;;;;;0.77;0.77;;;6.40;99.90;;;;;;4969355;28;20287;-80
2024/01/26 09:28:32;;;;;;;1.33;1.23;;;6.40;99.90;;;;;;4978942;28;20217;-78
2024/01/26 09:30:59;;;;;;;0.50;0.50;;;6.40;99.90;;;;;;4971036;28;20290;-80
2024/01/26 09:33:26;;;;;;;0.60;0.60;;;6.50;99.90;;;;;;4980936;28;20218;-81
2024/01/26 09:35:54;;;;;;;0.60;0.60;;;6.60;99.90;;;;;;4970712;28;20207;-81
2024/01/26 09:38:21;;;;;;;0.65;0.65;;;6.70;99.90;;;;;;4980877;28;20273;-80
2024/01/26 09:40:48;;;;;;;0.60;0.60;;;6.70;99.90;;;;;;4978034;28;20254;-79
2024/01/26 09:43:16;;;;;;;1.20;1.20;;;6.90;99.90;;;;;;4955739;28;20250;-80
2024/01/26 09:45:43;;;;;;;0.60;0.60;;;6.90;99.90;;;;;;4976606;28;20230;-83
2024/01/26 09:48:10;;;;;;;0.60;0.60;;;7.00;99.90;;;;;;4971824;28;20232;-81
2024/01/26 09:50:37;;;;;;;0.75;0.75;;;7.00;99.90;;;;;;4970409;28;20200;-79
2024/01/26 09:53:11;;;;;;;0.60;0.60;;;6.90;99.90;;;;;;4966368;28;20211;-80
2024/01/26 09:55:40;;;;;;;1.33;1.27;;;6.80;99.90;;;;;;4963944;28;20219;-80
2024/01/26 09:58:07;;;;;;;0.70;0.70;;;7.00;99.90;;;;;;4974412;28;20242;-81
2024/01/26 10:00:34;;;;;;;0.70;0.70;;;7.10;99.90;;;;;;4971781;28;20203;-81
2024/01/26 10:03:01;;;;;;;1.17;1.17;;;7.10;99.90;;;;;;4980044;28;20222;-81
2024/01/26 10:05:30;;;;;;;3.53;2.17;;;7.20;99.90;;;;;;4972207;28;20218;-80
2024/01/26 10:07:57;;;;;;;1.50;1.45;;;7.10;99.90;;;;;;4966710;28;20385;-81
2024/01/26 10:10:24;;;;;;;1.08;1.08;;;7.30;99.90;;;;;;4974606;28;20206;-81
2024/01/26 10:12:50;;;;;;;0.90;0.90;;;7.20;99.90;;;;;;4970224;28;20214;-82
2024/01/26 10:15:18;;;;;;;0.88;0.88;;;7.10;99.90;;;;;;4963325;28;20242;-79
2024/01/26 10:17:53;;;;;;;0.60;0.60;;;7.20;99.90;;;;;;4967894;28;20199;-80
2024/01/26 10:20:20;;;;;;;1.23;1.23;;;7.30;99.90;;;;;;4957031;28;20217;-78
2024/01/26 10:22:47;;;;;;;2.35;1.50;;;7.10;99.90;;;;;;4963372;28;20214;-79
2024/01/26 10:25:16;;;;;;;0.73;0.73;;;7.10;99.90;;;;;;4971253;28;20480;-81
2024/01/26 10:27:42;;;;;;;0.50;0.50;;;7.10;99.90;;;;;;4979837;28;20254;-78
2024/01/26 10:30:11;;;;;;;5.78;1.77;;;6.90;99.90;;;;;;4975042;28;20221;-80
2024/01/26 10:32:39;;;;;;;0.60;0.60;;;7.00;99.90;;;;;;4980133;28;20203;-79
2024/01/26 10:35:07;;;;;;;0.90;0.90;;;7.00;99.90;;;;;;4987921;28;20312;-78
2024/01/26 10:37:35;;;;;;;1.38;1.35;;;7.00;99.90;;;;;;4978212;28;20207;-79
2024/01/26 10:40:07;;;;;;;1.40;1.15;;;7.10;99.90;;;;;;4976617;28;20266;-80
2024/01/26 10:42:36;;;;;;;0.98;0.98;;;7.30;99.90;;;;;;4968459;28;20582;-79
2024/01/26 10:45:06;;;;;;;0.70;0.70;;;7.40;99.90;;;;;;4945775;28;20235;-81
2024/01/26 10:47:39;;;;;;;0.80;0.80;;;7.50;99.90;;;;;;4981802;28;20526;-79
2024/01/26 10:50:10;;;;;;;1.08;1.08;;;7.40;99.90;;;;;;4973945;28;20215;-78
2024/01/26 10:52:38;;;;;;;0.50;0.50;;;7.50;99.90;;;;;;4968361;28;20262;-78
2024/01/26 10:55:06;;;;;;;0.60;0.60;;;7.40;99.90;;;;;;4981447;28;20222;-80
2024/01/26 10:57:33;;;;;;;0.60;0.60;;;7.50;99.90;;;;;;4977913;28;20248;-78
2024/01/26 11:00:02;;;;;;;1.95;1.30;;;7.60;99.90;;;;;;4971369;28;20457;-78
2024/01/26 11:02:34;;;;;;;0.60;0.60;;;7.50;99.90;;;;;;4974833;28;20262;-79
2024/01/26 11:05:02;;;;;;;1.13;1.13;;;7.60;99.90;;;;;;4977946;28;20289;-80
2024/01/26 11:07:34;;;;;;;0.65;0.65;;;7.80;99.90;;;;;;4975972;28;20500;-78
2024/01/26 11:10:08;;;;;;;1.02;1.02;;;7.70;99.90;;;;;;4966878;28;20207;-78
2024/01/26 11:12:35;;;;;;;0.52;0.52;;;7.60;99.90;;;;;;4970676;28;20218;-79
2024/01/26 11:15:13;;;;;;;0.60;0.60;;;7.70;99.90;;;;;;4976793;28;20210;-78
2024/01/26 11:17:56;;;;;;;0.80;0.80;;;7.80;99.90;;;;;;4969095;28;20215;-80
2024/01/26 11:20:25;;;;;;;0.60;0.60;;;7.70;99.90;;;;;;4967587;28;20218;-82
2024/01/26 11:23:08;;;;;;;0.65;0.65;;;7.70;99.90;;;;;;4973981;28;20504;-82
2024/01/26 11:25:40;;;;;;;0.50;0.50;;;7.50;99.90;;;;;;4949905;28;20211;-81
2024/01/26 11:28:08;;;;;;;0.70;0.70;;;7.50;99.90;;;;;;4975990;28;20538;-83
2024/01/26 11:30:36;;;;;;;0.50;0.50;;;7.50;99.90;;;;;;4958418;28;20633;-79
2024/01/26 11:33:14;;;;;;;0.50;0.50;;;7.30;99.90;;;;;;4971791;28;20632;-78
2024/01/26 11:35:41;;;;;;;0.50;0.50;;;7.60;99.90;;;;;;4968666;28;20203;-79
2024/01/26 11:38:08;;;;;;;0.50;0.50;;;7.70;99.90;;;;;;4973135;28;20246;-81
2024/01/26 11:40:36;;;;;;;0.73;0.73;;;7.50;99.90;;;;;;4948970;28;20768;-83
2024/01/26 11:43:03;;;;;;;1.08;1.08;;;7.50;99.90;;;;;;4968670;28;20245;-79
2024/01/26 11:45:47;;;;;;;1.00;1.00;;;7.60;99.90;;;;;;4967162;28;20284;-80
2024/01/26 11:48:15;;;;;;;0.50;0.50;;;7.60;99.90;;;;;;4953753;28;20703;-81
2024/01/26 11:50:44;;;;;;;0.60;0.60;;;7.80;99.90;;;;;;4969629;28;20234;-83
2024/01/26 11:53:13;;;;;;;0.50;0.50;;;7.80;99.90;;;;;;4972940;28;20206;-81
2024/01/26 11:55:41;;;;;;;0.60;0.60;;;7.80;99.90;;;;;;4969607;28;20214;-79
2024/01/26 11:58:11;;;;;;;1.95;1.67;;;7.60;99.90;;;;;;4970937;28;20207;-79
2024/01/26 12:00:40;;;;;;;0.60;0.60;;;7.70;99.90;;;;;;4974305;28;20233;-80
2024/01/26 12:03:10;;;;;;;0.60;0.60;;;7.70;99.90;;;;;;4973090;28;20207;-80
2024/01/26 12:05:37;;;;;;;0.60;0.60;;;7.90;99.90;;;;;;4978597;28;20248;-79
2024/01/26 12:08:06;;;;;;;0.93;0.93;;;7.80;99.90;;;;;;4984208;28;20218;-80
2024/01/26 12:10:35;;;;;;;0.73;0.73;;;8.00;99.90;;;;;;4985938;28;20207;-77
2024/01/26 12:13:03;;;;;;;0.60;0.60;;;8.10;99.90;;;;;;4974429;28;20208;-81
2024/01/26 12:15:38;;;;;;;0.60;0.60;;;8.00;99.90;;;;;;4990201;28;20206;-78
2024/01/26 12:18:09;;;;;;;0.77;0.77;;;8.00;99.90;;;;;;4979423;28;20457;-83
2024/01/26 12:20:37;;;;;;;1.27;1.23;;;7.80;99.90;;;;;;4948812;28;20211;-80
2024/01/26 12:23:14;;;;;;;0.50;0.50;;;7.80;99.90;;;;;;4955575;28;20207;-80
2024/01/26 12:25:41;;;;;;;0.60;0.60;;;7.80;99.90;;;;;;4971628;28;20231;-79
2024/01/26 12:28:08;;;;;;;1.05;1.05;;;7.60;99.90;;;;;;4959962;28;20742;-80
2024/01/26 12:30:36;;;;;;;0.57;0.57;;;7.60;99.90;;;;;;4984635;28;20267;-80
2024/01/26 12:33:06;;;;;;;0.85;0.85;;;7.60;99.90;;;;;;4977010;28;20215;-80
2024/01/26 12:35:34;;;;;;;0.60;0.60;;;7.70;99.90;;;;;;4978583;28;20534;-79
2024/01/26 12:38:01;;;;;;;0.80;0.80;;;7.70;99.90;;;;;;4965289;28;20207;-81
2024/01/26 12:40:28;;;;;;;1.25;1.25;;;7.70;99.90;;;;;;4983458;28;20230;-82
2024/01/26 12:42:55;;;;;;;1.33;1.23;;;7.70;99.90;;;;;;4985117;28;20241;-83
2024/01/26 12:45:22;;;;;;;0.60;0.60;;;7.70;99.90;;;;;;4959951;28;20319;-80
2024/01/26 12:47:49;;;;;;;0.70;0.70;;;7.70;99.90;;;;;;4980471;28;20264;-82
2024/01/26 12:50:17;;;;;;;1.33;1.25;;;7.60;99.90;;;;;;4981716;28;20222;-79
2024/01/26 12:52:44;;;;;;;1.02;1.02;;;7.80;99.90;;;;;;4986550;28;20214;-80
2024/01/26 12:55:11;;;;;;;0.50;0.50;;;7.90;99.90;;;;;;4989645;28;20198;-79
2024/01/26 12:57:38;;;;;;;0.90;0.90;;;7.90;99.90;;;;;;4978837;28;20207;-81
2024/01/26 13:00:06;;;;;;;1.23;1.23;;;7.90;99.90;;;;;;4952454;28;20455;-79